sensor_id;sensor_type;location;lat;lon;timestamp;P1;durP1;ratioP1;P2;durP2;ratioP2
23088;SDS011;11713;48.506;8.966;2022-09-21T00:00:41;4.73;;;3.10;;
23088;SDS011;11713;48.506;8.966;2022-09-21T00:03:08;5.87;;;3.20;;
23088;SDS011;11713;48.506;8.966;2022-09-21T00:05:34;5.80;;;3.53;;
23088;SDS011;11713;48.506;8.966;2022-09-21T00:08:01;3.87;;;2.80;;
23088;SDS011;11713;48.506;8.966;2022-09-21T00:10:27;4.73;;;3.33;;
23088;SDS011;11713;48.506;8.966;2022-09-21T00:12:54;4.60;;;3.13;;
23088;SDS011;11713;48.506;8.966;2022-09-21T00:15:22;5.73;;;3.00;;
23088;SDS011;11713;48.506;8.966;2022-09-21T00:17:50;5.30;;;3.63;;
23088;SDS011;11713;48.506;8.966;2022-09-21T00:20:17;3.97;;;3.57;;
23088;SDS011;11713;48.506;8.966;2022-09-21T00:22:45;6.47;;;3.43;;
23088;SDS011;11713;48.506;8.966;2022-09-21T00:25:11;5.10;;;3.60;;
23088;SDS011;11713;48.506;8.966;2022-09-21T00:27:38;5.10;;;3.37;;
23088;SDS011;11713;48.506;8.966;2022-09-21T00:30:04;7.27;;;3.43;;
23088;SDS011;11713;48.506;8.966;2022-09-21T00:32:31;3.80;;;3.17;;
23088;SDS011;11713;48.506;8.966;2022-09-21T00:34:59;4.07;;;3.10;;
23088;SDS011;11713;48.506;8.966;2022-09-21T00:37:26;4.63;;;3.10;;
23088;SDS011;11713;48.506;8.966;2022-09-21T00:39:52;4.40;;;3.37;;
23088;SDS011;11713;48.506;8.966;2022-09-21T00:42:19;5.27;;;3.10;;
23088;SDS011;11713;48.506;8.966;2022-09-21T00:44:45;3.40;;;3.10;;
23088;SDS011;11713;48.506;8.966;2022-09-21T00:47:12;5.53;;;3.30;;
23088;SDS011;11713;48.506;8.966;2022-09-21T00:49:41;5.60;;;3.87;;
23088;SDS011;11713;48.506;8.966;2022-09-21T00:52:08;5.70;;;3.80;;
23088;SDS011;11713;48.506;8.966;2022-09-21T00:54:39;4.90;;;3.20;;
23088;SDS011;11713;48.506;8.966;2022-09-21T00:57:13;5.70;;;3.43;;
23088;SDS011;11713;48.506;8.966;2022-09-21T00:59:40;6.27;;;3.03;;
23088;SDS011;11713;48.506;8.966;2022-09-21T01:02:09;5.30;;;3.27;;
23088;SDS011;11713;48.506;8.966;2022-09-21T01:04:36;6.17;;;3.63;;
23088;SDS011;11713;48.506;8.966;2022-09-21T01:07:05;8.40;;;3.73;;
23088;SDS011;11713;48.506;8.966;2022-09-21T01:09:37;4.43;;;2.83;;
23088;SDS011;11713;48.506;8.966;2022-09-21T01:17:42;5.37;;;3.07;;
23088;SDS011;11713;48.506;8.966;2022-09-21T01:37:20;6.10;;;4.00;;
23088;SDS011;11713;48.506;8.966;2022-09-21T01:39:51;8.03;;;3.53;;
23088;SDS011;11713;48.506;8.966;2022-09-21T01:42:20;5.93;;;3.20;;
23088;SDS011;11713;48.506;8.966;2022-09-21T01:44:49;9.17;;;3.53;;
23088;SDS011;11713;48.506;8.966;2022-09-21T01:47:16;4.37;;;3.67;;
23088;SDS011;11713;48.506;8.966;2022-09-21T01:49:47;6.03;;;3.40;;
23088;SDS011;11713;48.506;8.966;2022-09-21T01:54:48;5.30;;;3.63;;
23088;SDS011;11713;48.506;8.966;2022-09-21T01:59:55;5.57;;;3.90;;
23088;SDS011;11713;48.506;8.966;2022-09-21T02:05:03;6.47;;;4.03;;
23088;SDS011;11713;48.506;8.966;2022-09-21T02:07:31;3.97;;;3.40;;
23088;SDS011;11713;48.506;8.966;2022-09-21T02:09:58;5.23;;;3.80;;
23088;SDS011;11713;48.506;8.966;2022-09-21T02:12:27;6.93;;;3.80;;
23088;SDS011;11713;48.506;8.966;2022-09-21T02:14:55;5.60;;;3.97;;
23088;SDS011;11713;48.506;8.966;2022-09-21T02:20:17;4.73;;;3.90;;
23088;SDS011;11713;48.506;8.966;2022-09-21T02:28:18;4.63;;;3.83;;
23088;SDS011;11713;48.506;8.966;2022-09-21T02:31:00;5.40;;;3.90;;
23088;SDS011;11713;48.506;8.966;2022-09-21T02:33:58;9.57;;;4.13;;
23088;SDS011;11713;48.506;8.966;2022-09-21T02:36:30;5.93;;;3.80;;
23088;SDS011;11713;48.506;8.966;2022-09-21T02:39:46;3.50;;;3.10;;
23088;SDS011;11713;48.506;8.966;2022-09-21T02:42:18;4.00;;;3.23;;
23088;SDS011;11713;48.506;8.966;2022-09-21T02:45:03;4.27;;;3.27;;
23088;SDS011;11713;48.506;8.966;2022-09-21T02:47:55;5.70;;;3.87;;
23088;SDS011;11713;48.506;8.966;2022-09-21T02:50:40;6.00;;;3.70;;
23088;SDS011;11713;48.506;8.966;2022-09-21T02:53:10;6.80;;;3.53;;
23088;SDS011;11713;48.506;8.966;2022-09-21T02:55:40;6.33;;;3.67;;
23088;SDS011;11713;48.506;8.966;2022-09-21T02:58:08;7.30;;;4.17;;
23088;SDS011;11713;48.506;8.966;2022-09-21T03:00:38;4.67;;;3.43;;
23088;SDS011;11713;48.506;8.966;2022-09-21T03:03:18;4.90;;;4.03;;
23088;SDS011;11713;48.506;8.966;2022-09-21T03:05:45;4.43;;;3.70;;
23088;SDS011;11713;48.506;8.966;2022-09-21T03:08:14;7.87;;;3.57;;
23088;SDS011;11713;48.506;8.966;2022-09-21T03:10:43;4.40;;;3.80;;
23088;SDS011;11713;48.506;8.966;2022-09-21T03:13:12;5.30;;;3.60;;
23088;SDS011;11713;48.506;8.966;2022-09-21T03:15:39;5.07;;;3.80;;
23088;SDS011;11713;48.506;8.966;2022-09-21T03:18:06;3.77;;;3.20;;
23088;SDS011;11713;48.506;8.966;2022-09-21T03:20:36;4.93;;;3.80;;
23088;SDS011;11713;48.506;8.966;2022-09-21T03:23:10;5.90;;;3.50;;
23088;SDS011;11713;48.506;8.966;2022-09-21T03:25:37;4.37;;;3.50;;
23088;SDS011;11713;48.506;8.966;2022-09-21T03:28:04;4.17;;;3.53;;
23088;SDS011;11713;48.506;8.966;2022-09-21T03:30:31;3.60;;;3.30;;
23088;SDS011;11713;48.506;8.966;2022-09-21T03:32:56;3.50;;;3.20;;
23088;SDS011;11713;48.506;8.966;2022-09-21T03:35:23;4.80;;;3.40;;
23088;SDS011;11713;48.506;8.966;2022-09-21T03:37:52;4.30;;;3.40;;
23088;SDS011;11713;48.506;8.966;2022-09-21T03:40:19;4.83;;;3.63;;
23088;SDS011;11713;48.506;8.966;2022-09-21T03:42:45;4.20;;;3.30;;
23088;SDS011;11713;48.506;8.966;2022-09-21T03:45:11;3.77;;;3.13;;
23088;SDS011;11713;48.506;8.966;2022-09-21T03:47:38;5.67;;;3.70;;
23088;SDS011;11713;48.506;8.966;2022-09-21T03:50:05;4.30;;;3.57;;
23088;SDS011;11713;48.506;8.966;2022-09-21T03:52:31;5.13;;;3.60;;
23088;SDS011;11713;48.506;8.966;2022-09-21T03:54:57;5.40;;;3.77;;
23088;SDS011;11713;48.506;8.966;2022-09-21T03:57:23;5.37;;;3.90;;
23088;SDS011;11713;48.506;8.966;2022-09-21T03:59:49;7.30;;;4.67;;
23088;SDS011;11713;48.506;8.966;2022-09-21T04:02:16;9.10;;;5.63;;
23088;SDS011;11713;48.506;8.966;2022-09-21T04:04:42;8.43;;;5.13;;
23088;SDS011;11713;48.506;8.966;2022-09-21T04:07:07;9.93;;;5.60;;
23088;SDS011;11713;48.506;8.966;2022-09-21T04:09:33;11.20;;;5.30;;
23088;SDS011;11713;48.506;8.966;2022-09-21T04:11:59;10.40;;;6.73;;
23088;SDS011;11713;48.506;8.966;2022-09-21T04:14:26;9.07;;;6.13;;
23088;SDS011;11713;48.506;8.966;2022-09-21T04:16:53;9.50;;;5.43;;
23088;SDS011;11713;48.506;8.966;2022-09-21T04:19:23;13.70;;;6.80;;
23088;SDS011;11713;48.506;8.966;2022-09-21T04:21:49;9.97;;;6.73;;
23088;SDS011;11713;48.506;8.966;2022-09-21T04:24:19;10.13;;;6.53;;
23088;SDS011;11713;48.506;8.966;2022-09-21T04:26:45;13.90;;;6.43;;
23088;SDS011;11713;48.506;8.966;2022-09-21T04:29:11;11.27;;;6.17;;
23088;SDS011;11713;48.506;8.966;2022-09-21T04:31:38;18.67;;;6.13;;
23088;SDS011;11713;48.506;8.966;2022-09-21T04:34:04;12.03;;;5.40;;
23088;SDS011;11713;48.506;8.966;2022-09-21T04:36:30;10.70;;;5.43;;
23088;SDS011;11713;48.506;8.966;2022-09-21T04:38:57;14.13;;;5.10;;
23088;SDS011;11713;48.506;8.966;2022-09-21T04:41:26;10.47;;;4.63;;
23088;SDS011;11713;48.506;8.966;2022-09-21T04:43:52;16.40;;;4.83;;
23088;SDS011;11713;48.506;8.966;2022-09-21T04:46:19;9.30;;;4.80;;
23088;SDS011;11713;48.506;8.966;2022-09-21T04:48:45;11.07;;;5.40;;
23088;SDS011;11713;48.506;8.966;2022-09-21T04:51:12;15.90;;;5.87;;
23088;SDS011;11713;48.506;8.966;2022-09-21T04:53:39;48.70;;;6.10;;
23088;SDS011;11713;48.506;8.966;2022-09-21T04:56:06;8.00;;;4.40;;
23088;SDS011;11713;48.506;8.966;2022-09-21T04:58:33;8.37;;;4.90;;
23088;SDS011;11713;48.506;8.966;2022-09-21T05:01:00;18.10;;;5.73;;
23088;SDS011;11713;48.506;8.966;2022-09-21T05:03:26;32.17;;;6.33;;
23088;SDS011;11713;48.506;8.966;2022-09-21T05:05:53;20.47;;;6.23;;
23088;SDS011;11713;48.506;8.966;2022-09-21T05:08:21;8.83;;;5.57;;
23088;SDS011;11713;48.506;8.966;2022-09-21T05:11:06;10.30;;;6.00;;
23088;SDS011;11713;48.506;8.966;2022-09-21T05:13:34;7.37;;;6.60;;
23088;SDS011;11713;48.506;8.966;2022-09-21T05:16:00;12.73;;;7.20;;
23088;SDS011;11713;48.506;8.966;2022-09-21T05:18:26;16.57;;;6.60;;
23088;SDS011;11713;48.506;8.966;2022-09-21T05:20:55;9.97;;;5.37;;
23088;SDS011;11713;48.506;8.966;2022-09-21T05:23:22;11.77;;;5.83;;
23088;SDS011;11713;48.506;8.966;2022-09-21T05:25:48;6.77;;;5.30;;
23088;SDS011;11713;48.506;8.966;2022-09-21T05:28:15;13.33;;;5.50;;
23088;SDS011;11713;48.506;8.966;2022-09-21T05:30:46;11.57;;;5.77;;
23088;SDS011;11713;48.506;8.966;2022-09-21T05:33:19;10.40;;;5.30;;
23088;SDS011;11713;48.506;8.966;2022-09-21T05:38:35;5.63;;;4.67;;
23088;SDS011;11713;48.506;8.966;2022-09-21T05:41:02;14.23;;;5.30;;
23088;SDS011;11713;48.506;8.966;2022-09-21T05:43:28;16.03;;;6.30;;
23088;SDS011;11713;48.506;8.966;2022-09-21T05:46:00;18.27;;;5.27;;
23088;SDS011;11713;48.506;8.966;2022-09-21T05:48:32;12.20;;;5.73;;
23088;SDS011;11713;48.506;8.966;2022-09-21T05:53:39;13.17;;;6.87;;
23088;SDS011;11713;48.506;8.966;2022-09-21T06:01:56;19.30;;;7.07;;
23088;SDS011;11713;48.506;8.966;2022-09-21T06:04:37;9.27;;;5.80;;
23088;SDS011;11713;48.506;8.966;2022-09-21T06:07:03;7.67;;;6.00;;
23088;SDS011;11713;48.506;8.966;2022-09-21T06:09:30;23.27;;;7.37;;
23088;SDS011;11713;48.506;8.966;2022-09-21T06:11:57;8.20;;;6.67;;
23088;SDS011;11713;48.506;8.966;2022-09-21T06:14:28;11.83;;;6.17;;
23088;SDS011;11713;48.506;8.966;2022-09-21T06:16:54;12.10;;;7.20;;
23088;SDS011;11713;48.506;8.966;2022-09-21T06:19:20;69.77;;;8.03;;
23088;SDS011;11713;48.506;8.966;2022-09-21T06:21:46;18.27;;;6.57;;
23088;SDS011;11713;48.506;8.966;2022-09-21T06:24:13;13.33;;;7.33;;
23088;SDS011;11713;48.506;8.966;2022-09-21T06:26:39;10.00;;;7.23;;
23088;SDS011;11713;48.506;8.966;2022-09-21T06:29:07;16.07;;;7.77;;
23088;SDS011;11713;48.506;8.966;2022-09-21T06:31:32;10.40;;;8.03;;
23088;SDS011;11713;48.506;8.966;2022-09-21T06:33:59;46.07;;;27.47;;
23088;SDS011;11713;48.506;8.966;2022-09-21T06:36:25;13.20;;;7.80;;
23088;SDS011;11713;48.506;8.966;2022-09-21T06:38:51;14.30;;;6.83;;
23088;SDS011;11713;48.506;8.966;2022-09-21T06:41:16;12.47;;;6.63;;
23088;SDS011;11713;48.506;8.966;2022-09-21T06:43:42;10.50;;;6.10;;
23088;SDS011;11713;48.506;8.966;2022-09-21T06:46:08;11.30;;;6.77;;
23088;SDS011;11713;48.506;8.966;2022-09-21T06:48:34;14.50;;;6.57;;
23088;SDS011;11713;48.506;8.966;2022-09-21T06:51:01;10.73;;;6.53;;
23088;SDS011;11713;48.506;8.966;2022-09-21T06:53:28;14.13;;;6.53;;
23088;SDS011;11713;48.506;8.966;2022-09-21T06:55:59;12.43;;;11.07;;
23088;SDS011;11713;48.506;8.966;2022-09-21T06:58:34;8.67;;;7.47;;
23088;SDS011;11713;48.506;8.966;2022-09-21T07:03:32;10.17;;;6.17;;
23088;SDS011;11713;48.506;8.966;2022-09-21T07:05:58;6.47;;;5.43;;
23088;SDS011;11713;48.506;8.966;2022-09-21T07:08:24;6.70;;;5.93;;
23088;SDS011;11713;48.506;8.966;2022-09-21T07:10:50;8.50;;;6.17;;
23088;SDS011;11713;48.506;8.966;2022-09-21T07:13:16;9.43;;;6.07;;
23088;SDS011;11713;48.506;8.966;2022-09-21T07:15:45;19.57;;;6.40;;
23088;SDS011;11713;48.506;8.966;2022-09-21T07:18:12;10.50;;;7.33;;
23088;SDS011;11713;48.506;8.966;2022-09-21T07:20:38;10.63;;;7.80;;
23088;SDS011;11713;48.506;8.966;2022-09-21T07:23:09;6.93;;;6.23;;
23088;SDS011;11713;48.506;8.966;2022-09-21T07:25:35;9.57;;;7.80;;
23088;SDS011;11713;48.506;8.966;2022-09-21T07:28:03;8.97;;;7.03;;
23088;SDS011;11713;48.506;8.966;2022-09-21T07:30:29;9.00;;;7.40;;
23088;SDS011;11713;48.506;8.966;2022-09-21T07:32:55;15.30;;;7.20;;
23088;SDS011;11713;48.506;8.966;2022-09-21T07:35:23;8.87;;;7.07;;
23088;SDS011;11713;48.506;8.966;2022-09-21T07:37:49;11.60;;;8.43;;
23088;SDS011;11713;48.506;8.966;2022-09-21T07:40:15;10.93;;;7.90;;
23088;SDS011;11713;48.506;8.966;2022-09-21T07:42:43;10.83;;;7.87;;
23088;SDS011;11713;48.506;8.966;2022-09-21T07:45:10;11.53;;;6.83;;
23088;SDS011;11713;48.506;8.966;2022-09-21T07:47:36;8.93;;;7.40;;
23088;SDS011;11713;48.506;8.966;2022-09-21T07:50:02;9.03;;;7.43;;
23088;SDS011;11713;48.506;8.966;2022-09-21T07:52:28;8.00;;;7.20;;
23088;SDS011;11713;48.506;8.966;2022-09-21T07:54:54;8.17;;;7.17;;
23088;SDS011;11713;48.506;8.966;2022-09-21T07:57:19;7.97;;;6.80;;
23088;SDS011;11713;48.506;8.966;2022-09-21T08:00:04;9.70;;;6.83;;
23088;SDS011;11713;48.506;8.966;2022-09-21T08:02:36;8.90;;;7.13;;
23088;SDS011;11713;48.506;8.966;2022-09-21T08:05:03;10.13;;;7.40;;
23088;SDS011;11713;48.506;8.966;2022-09-21T08:07:29;9.10;;;7.13;;
23088;SDS011;11713;48.506;8.966;2022-09-21T08:09:55;8.53;;;7.30;;
23088;SDS011;11713;48.506;8.966;2022-09-21T08:12:21;10.30;;;7.63;;
23088;SDS011;11713;48.506;8.966;2022-09-21T08:14:47;8.40;;;7.50;;
23088;SDS011;11713;48.506;8.966;2022-09-21T08:17:13;10.20;;;7.43;;
23088;SDS011;11713;48.506;8.966;2022-09-21T08:19:39;12.57;;;9.60;;
23088;SDS011;11713;48.506;8.966;2022-09-21T08:22:05;9.87;;;7.83;;
23088;SDS011;11713;48.506;8.966;2022-09-21T08:24:31;10.93;;;8.50;;
23088;SDS011;11713;48.506;8.966;2022-09-21T08:26:57;12.43;;;8.50;;
23088;SDS011;11713;48.506;8.966;2022-09-21T08:29:24;9.77;;;8.27;;
23088;SDS011;11713;48.506;8.966;2022-09-21T08:31:50;10.17;;;7.93;;
23088;SDS011;11713;48.506;8.966;2022-09-21T08:34:17;9.33;;;7.60;;
23088;SDS011;11713;48.506;8.966;2022-09-21T08:36:44;9.53;;;8.03;;
23088;SDS011;11713;48.506;8.966;2022-09-21T08:39:10;9.37;;;7.50;;
23088;SDS011;11713;48.506;8.966;2022-09-21T08:47:20;10.03;;;7.17;;
23088;SDS011;11713;48.506;8.966;2022-09-21T08:49:52;7.50;;;6.80;;
23088;SDS011;11713;48.506;8.966;2022-09-21T08:52:22;9.03;;;6.93;;
23088;SDS011;11713;48.506;8.966;2022-09-21T08:57:17;8.00;;;7.20;;
23088;SDS011;11713;48.506;8.966;2022-09-21T08:59:47;10.50;;;7.87;;
23088;SDS011;11713;48.506;8.966;2022-09-21T09:12:56;8.20;;;6.10;;
23088;SDS011;11713;48.506;8.966;2022-09-21T09:16:31;9.27;;;6.40;;
23088;SDS011;11713;48.506;8.966;2022-09-21T09:18:55;7.47;;;6.60;;
23088;SDS011;11713;48.506;8.966;2022-09-21T09:21:28;9.83;;;6.00;;
23088;SDS011;11713;48.506;8.966;2022-09-21T09:24:18;8.87;;;6.17;;
23088;SDS011;11713;48.506;8.966;2022-09-21T09:27:16;6.30;;;5.27;;
23088;SDS011;11713;48.506;8.966;2022-09-21T09:30:12;6.03;;;5.27;;
23088;SDS011;11713;48.506;8.966;2022-09-21T09:35:35;3.73;;;2.93;;
23088;SDS011;11713;48.506;8.966;2022-09-21T09:38:13;7.77;;;4.30;;
23088;SDS011;11713;48.506;8.966;2022-09-21T09:43:50;5.63;;;2.30;;
23088;SDS011;11713;48.506;8.966;2022-09-21T09:51:56;2.20;;;1.70;;
23088;SDS011;11713;48.506;8.966;2022-09-21T09:54:23;5.97;;;2.80;;
23088;SDS011;11713;48.506;8.966;2022-09-21T09:56:51;2.47;;;1.90;;
23088;SDS011;11713;48.506;8.966;2022-09-21T09:59:27;2.07;;;1.60;;
23088;SDS011;11713;48.506;8.966;2022-09-21T10:02:22;4.47;;;1.87;;
23088;SDS011;11713;48.506;8.966;2022-09-21T10:05:00;2.33;;;1.70;;
23088;SDS011;11713;48.506;8.966;2022-09-21T10:07:33;3.10;;;1.90;;
23088;SDS011;11713;48.506;8.966;2022-09-21T10:13:01;1.50;;;1.20;;
23088;SDS011;11713;48.506;8.966;2022-09-21T10:15:49;4.87;;;1.63;;
23088;SDS011;11713;48.506;8.966;2022-09-21T10:18:16;3.50;;;1.37;;
23088;SDS011;11713;48.506;8.966;2022-09-21T10:20:56;2.03;;;1.40;;
23088;SDS011;11713;48.506;8.966;2022-09-21T10:23:27;2.57;;;1.00;;
23088;SDS011;11713;48.506;8.966;2022-09-21T10:28:34;2.03;;;1.10;;
23088;SDS011;11713;48.506;8.966;2022-09-21T10:31:11;1.80;;;1.00;;
23088;SDS011;11713;48.506;8.966;2022-09-21T10:34:04;2.10;;;0.93;;
23088;SDS011;11713;48.506;8.966;2022-09-21T10:36:36;3.47;;;1.30;;
23088;SDS011;11713;48.506;8.966;2022-09-21T10:39:19;1.80;;;0.77;;
23088;SDS011;11713;48.506;8.966;2022-09-21T10:44:18;1.90;;;0.90;;
23088;SDS011;11713;48.506;8.966;2022-09-21T10:46:46;3.20;;;0.90;;
23088;SDS011;11713;48.506;8.966;2022-09-21T10:49:21;2.00;;;1.00;;
23088;SDS011;11713;48.506;8.966;2022-09-21T10:51:50;1.97;;;0.80;;
23088;SDS011;11713;48.506;8.966;2022-09-21T10:54:23;1.13;;;0.90;;
23088;SDS011;11713;48.506;8.966;2022-09-21T10:56:54;1.40;;;1.23;;
23088;SDS011;11713;48.506;8.966;2022-09-21T10:59:27;2.80;;;0.97;;
23088;SDS011;11713;48.506;8.966;2022-09-21T11:01:58;1.73;;;1.00;;
23088;SDS011;11713;48.506;8.966;2022-09-21T11:04:42;1.10;;;0.87;;
23088;SDS011;11713;48.506;8.966;2022-09-21T11:09:53;1.30;;;0.80;;
23088;SDS011;11713;48.506;8.966;2022-09-21T11:15:15;1.30;;;1.10;;
23088;SDS011;11713;48.506;8.966;2022-09-21T11:18:07;2.40;;;1.07;;
23088;SDS011;11713;48.506;8.966;2022-09-21T11:20:45;2.20;;;0.90;;
23088;SDS011;11713;48.506;8.966;2022-09-21T11:26:04;2.10;;;1.10;;
23088;SDS011;11713;48.506;8.966;2022-09-21T11:29:00;2.20;;;1.00;;
23088;SDS011;11713;48.506;8.966;2022-09-21T11:31:40;2.63;;;0.98;;
23088;SDS011;11713;48.506;8.966;2022-09-21T11:40:31;3.05;;;1.15;;
23088;SDS011;11713;48.506;8.966;2022-09-21T11:46:05;2.40;;;1.27;;
23088;SDS011;11713;48.506;8.966;2022-09-21T11:51:32;2.00;;;1.30;;
23088;SDS011;11713;48.506;8.966;2022-09-21T11:56:43;1.38;;;1.10;;
23088;SDS011;11713;48.506;8.966;2022-09-21T12:13:35;2.53;;;1.25;;
23088;SDS011;11713;48.506;8.966;2022-09-21T12:21:26;1.38;;;0.82;;
23088;SDS011;11713;48.506;8.966;2022-09-21T12:23:56;2.17;;;0.80;;
23088;SDS011;11713;48.506;8.966;2022-09-21T12:26:38;0.70;;;0.68;;
23088;SDS011;11713;48.506;8.966;2022-09-21T12:29:14;2.70;;;1.00;;
23088;SDS011;11713;48.506;8.966;2022-09-21T12:32:01;2.13;;;0.80;;
23088;SDS011;11713;48.506;8.966;2022-09-21T12:34:38;1.02;;;0.80;;
23088;SDS011;11713;48.506;8.966;2022-09-21T12:39:40;1.52;;;0.90;;
23088;SDS011;11713;48.506;8.966;2022-09-21T12:44:55;2.75;;;0.90;;
23088;SDS011;11713;48.506;8.966;2022-09-21T12:50:15;1.17;;;0.52;;
23088;SDS011;11713;48.506;8.966;2022-09-21T12:52:45;1.85;;;0.68;;
23088;SDS011;11713;48.506;8.966;2022-09-21T13:00:44;1.88;;;0.80;;
23088;SDS011;11713;48.506;8.966;2022-09-21T13:03:35;1.10;;;0.80;;
23088;SDS011;11713;48.506;8.966;2022-09-21T13:06:32;0.60;;;0.60;;
23088;SDS011;11713;48.506;8.966;2022-09-21T13:09:16;1.85;;;0.77;;
23088;SDS011;11713;48.506;8.966;2022-09-21T13:12:06;0.70;;;0.70;;
23088;SDS011;11713;48.506;8.966;2022-09-21T13:15:31;2.25;;;0.70;;
23088;SDS011;11713;48.506;8.966;2022-09-21T13:17:57;0.65;;;0.65;;
23088;SDS011;11713;48.506;8.966;2022-09-21T13:20:32;1.00;;;0.80;;
23088;SDS011;11713;48.506;8.966;2022-09-21T13:23:04;1.35;;;0.73;;
23088;SDS011;11713;48.506;8.966;2022-09-21T13:25:31;2.50;;;0.90;;
23088;SDS011;11713;48.506;8.966;2022-09-21T13:46:58;2.05;;;0.70;;
23088;SDS011;11713;48.506;8.966;2022-09-21T13:49:30;2.88;;;0.60;;
23088;SDS011;11713;48.506;8.966;2022-09-21T13:57:17;1.00;;;0.70;;
23088;SDS011;11713;48.506;8.966;2022-09-21T13:59:58;0.82;;;0.70;;
23088;SDS011;11713;48.506;8.966;2022-09-21T14:02:32;2.15;;;0.80;;
23088;SDS011;11713;48.506;8.966;2022-09-21T14:05:03;0.95;;;0.70;;
23088;SDS011;11713;48.506;8.966;2022-09-21T14:07:42;1.08;;;0.50;;
23088;SDS011;11713;48.506;8.966;2022-09-21T14:10:17;1.27;;;0.82;;
23088;SDS011;11713;48.506;8.966;2022-09-21T14:12:46;0.93;;;0.88;;
23088;SDS011;11713;48.506;8.966;2022-09-21T14:26:33;0.98;;;0.80;;
23088;SDS011;11713;48.506;8.966;2022-09-21T14:29:15;2.30;;;0.63;;
23088;SDS011;11713;48.506;8.966;2022-09-21T14:31:45;1.02;;;0.55;;
23088;SDS011;11713;48.506;8.966;2022-09-21T14:34:15;2.15;;;0.73;;
23088;SDS011;11713;48.506;8.966;2022-09-21T14:36:47;1.75;;;1.00;;
23088;SDS011;11713;48.506;8.966;2022-09-21T14:41:50;0.75;;;0.60;;
23088;SDS011;11713;48.506;8.966;2022-09-21T14:44:21;1.48;;;0.70;;
23088;SDS011;11713;48.506;8.966;2022-09-21T14:52:20;1.90;;;0.75;;
23088;SDS011;11713;48.506;8.966;2022-09-21T15:00:37;0.60;;;0.50;;
23088;SDS011;11713;48.506;8.966;2022-09-21T15:03:09;0.93;;;0.80;;
23088;SDS011;11713;48.506;8.966;2022-09-21T15:05:57;1.02;;;0.93;;
23088;SDS011;11713;48.506;8.966;2022-09-21T15:11:46;0.82;;;0.60;;
23088;SDS011;11713;48.506;8.966;2022-09-21T15:16:56;0.70;;;0.68;;
23088;SDS011;11713;48.506;8.966;2022-09-21T15:19:23;1.15;;;0.70;;
23088;SDS011;11713;48.506;8.966;2022-09-21T15:22:08;1.52;;;1.23;;
23088;SDS011;11713;48.506;8.966;2022-09-21T15:25:00;1.45;;;0.90;;
23088;SDS011;11713;48.506;8.966;2022-09-21T15:27:28;1.77;;;1.08;;
23088;SDS011;11713;48.506;8.966;2022-09-21T15:29:57;4.65;;;2.20;;
23088;SDS011;11713;48.506;8.966;2022-09-21T15:32:37;2.85;;;1.30;;
23088;SDS011;11713;48.506;8.966;2022-09-21T15:37:42;0.90;;;0.90;;
23088;SDS011;11713;48.506;8.966;2022-09-21T15:43:03;1.23;;;0.90;;
23088;SDS011;11713;48.506;8.966;2022-09-21T15:48:10;1.95;;;0.77;;
23088;SDS011;11713;48.506;8.966;2022-09-21T15:50:37;0.90;;;0.90;;
23088;SDS011;11713;48.506;8.966;2022-09-21T15:53:11;1.08;;;0.90;;
23088;SDS011;11713;48.506;8.966;2022-09-21T15:55:46;1.25;;;0.90;;
23088;SDS011;11713;48.506;8.966;2022-09-21T15:58:26;2.95;;;1.20;;
23088;SDS011;11713;48.506;8.966;2022-09-21T16:01:03;1.70;;;1.00;;
23088;SDS011;11713;48.506;8.966;2022-09-21T16:03:36;0.93;;;0.73;;
23088;SDS011;11713;48.506;8.966;2022-09-21T16:06:45;0.93;;;0.85;;
23088;SDS011;11713;48.506;8.966;2022-09-21T16:08:59;1.70;;;0.95;;
23088;SDS011;11713;48.506;8.966;2022-09-21T16:11:51;1.00;;;0.90;;
23088;SDS011;11713;48.506;8.966;2022-09-21T16:14:18;1.17;;;0.98;;
23088;SDS011;11713;48.506;8.966;2022-09-21T16:22:23;1.33;;;0.85;;
23088;SDS011;11713;48.506;8.966;2022-09-21T16:24:55;1.47;;;0.80;;
23088;SDS011;11713;48.506;8.966;2022-09-21T16:27:24;2.15;;;0.75;;
23088;SDS011;11713;48.506;8.966;2022-09-21T16:29:52;1.20;;;0.80;;
23088;SDS011;11713;48.506;8.966;2022-09-21T16:37:51;2.30;;;1.10;;
23088;SDS011;11713;48.506;8.966;2022-09-21T16:40:23;1.30;;;0.70;;
23088;SDS011;11713;48.506;8.966;2022-09-21T16:42:50;1.60;;;0.97;;
23088;SDS011;11713;48.506;8.966;2022-09-21T16:45:21;1.90;;;1.20;;
23088;SDS011;11713;48.506;8.966;2022-09-21T16:47:51;1.20;;;0.90;;
23088;SDS011;11713;48.506;8.966;2022-09-21T16:50:18;1.10;;;0.93;;
23088;SDS011;11713;48.506;8.966;2022-09-21T16:52:45;1.97;;;1.13;;
23088;SDS011;11713;48.506;8.966;2022-09-21T16:55:17;1.63;;;1.10;;
23088;SDS011;11713;48.506;8.966;2022-09-21T16:57:43;1.60;;;1.03;;
23088;SDS011;11713;48.506;8.966;2022-09-21T17:00:14;1.93;;;1.03;;
23088;SDS011;11713;48.506;8.966;2022-09-21T17:02:46;0.90;;;0.90;;
23088;SDS011;11713;48.506;8.966;2022-09-21T17:05:12;1.10;;;1.00;;
23088;SDS011;11713;48.506;8.966;2022-09-21T17:10:17;1.90;;;1.10;;
23088;SDS011;11713;48.506;8.966;2022-09-21T17:12:44;1.00;;;1.00;;
23088;SDS011;11713;48.506;8.966;2022-09-21T17:15:12;1.27;;;0.90;;
23088;SDS011;11713;48.506;8.966;2022-09-21T17:17:38;1.67;;;0.93;;
23088;SDS011;11713;48.506;8.966;2022-09-21T17:20:10;1.13;;;0.90;;
23088;SDS011;11713;48.506;8.966;2022-09-21T17:22:44;1.00;;;0.90;;
23088;SDS011;11713;48.506;8.966;2022-09-21T17:25:11;1.30;;;1.10;;
23088;SDS011;11713;48.506;8.966;2022-09-21T17:27:37;2.20;;;1.10;;
23088;SDS011;11713;48.506;8.966;2022-09-21T17:30:11;1.00;;;0.90;;
23088;SDS011;11713;48.506;8.966;2022-09-21T17:32:38;1.10;;;1.00;;
23088;SDS011;11713;48.506;8.966;2022-09-21T17:37:46;2.07;;;1.07;;
23088;SDS011;11713;48.506;8.966;2022-09-21T17:40:13;1.97;;;1.10;;
23088;SDS011;11713;48.506;8.966;2022-09-21T17:42:39;4.03;;;1.30;;
23088;SDS011;11713;48.506;8.966;2022-09-21T17:47:39;1.73;;;1.10;;
23088;SDS011;11713;48.506;8.966;2022-09-21T17:52:41;2.13;;;1.17;;
23088;SDS011;11713;48.506;8.966;2022-09-21T17:55:27;1.20;;;1.00;;
23088;SDS011;11713;48.506;8.966;2022-09-21T18:03:31;4.03;;;1.93;;
23088;SDS011;11713;48.506;8.966;2022-09-21T18:06:05;2.20;;;1.57;;
23088;SDS011;11713;48.506;8.966;2022-09-21T18:08:33;1.40;;;1.17;;
23088;SDS011;11713;48.506;8.966;2022-09-21T18:16:57;1.47;;;1.30;;
23088;SDS011;11713;48.506;8.966;2022-09-21T18:20:06;2.20;;;1.50;;
23088;SDS011;11713;48.506;8.966;2022-09-21T18:22:55;1.47;;;1.07;;
23088;SDS011;11713;48.506;8.966;2022-09-21T18:25:34;1.20;;;1.10;;
23088;SDS011;11713;48.506;8.966;2022-09-21T18:28:22;2.27;;;1.33;;
23088;SDS011;11713;48.506;8.966;2022-09-21T18:34:24;2.73;;;1.90;;
23088;SDS011;11713;48.506;8.966;2022-09-21T18:37:11;2.13;;;1.73;;
23088;SDS011;11713;48.506;8.966;2022-09-21T18:42:28;2.33;;;1.77;;
23088;SDS011;11713;48.506;8.966;2022-09-21T18:45:32;4.30;;;1.63;;
23088;SDS011;11713;48.506;8.966;2022-09-21T18:48:07;2.63;;;1.73;;
23088;SDS011;11713;48.506;8.966;2022-09-21T18:56:17;2.83;;;1.80;;
23088;SDS011;11713;48.506;8.966;2022-09-21T18:58:43;1.80;;;1.50;;
23088;SDS011;11713;48.506;8.966;2022-09-21T19:01:12;2.07;;;1.40;;
23088;SDS011;11713;48.506;8.966;2022-09-21T19:03:40;2.27;;;1.50;;
23088;SDS011;11713;48.506;8.966;2022-09-21T19:09:01;2.97;;;2.27;;
23088;SDS011;11713;48.506;8.966;2022-09-21T19:12:12;6.17;;;2.53;;
23088;SDS011;11713;48.506;8.966;2022-09-21T19:23:02;3.47;;;2.67;;
23088;SDS011;11713;48.506;8.966;2022-09-21T19:25:55;4.90;;;3.60;;
23088;SDS011;11713;48.506;8.966;2022-09-21T19:31:12;4.77;;;4.00;;
23088;SDS011;11713;48.506;8.966;2022-09-21T19:33:40;5.40;;;3.90;;
23088;SDS011;11713;48.506;8.966;2022-09-21T19:36:09;4.00;;;3.60;;
23088;SDS011;11713;48.506;8.966;2022-09-21T19:38:36;6.83;;;4.33;;
23088;SDS011;11713;48.506;8.966;2022-09-21T19:43:38;6.73;;;4.30;;